Max, Minnesota
Current Conditions -  °F | °C
As of 12:53 PM on Tuesday 27 Jan 2015 (Local Time) from KFOZ Reporting Station
Broken Clouds Broken Clouds  
Wind Chill: 24°   Ceiling: 1300
Heat Index: 30°   Visibility: 10mi
Dew Point: 25°   Wind: 6mph
Humidity: 80%   Direction: 150°SSE
Pressure: 30.08"   Gusts: NA
Location:  47.61°N, 94.07°W
Report Text: KFOZ 271853Z AUTO 15005KT 10SM BKN013 M01/M04 A3008 RMK AO2
Loading
Personal Weather Stations






























Interactive Weather Map New forecast layout! Learn more

10-Day Weather Forecast

Advertisements
Track Severe Weather on mobile